createdAt,value
2022-11-19T00:00:15.788Z,1.93
2022-11-19T00:00:51.137Z,1.80
2022-11-19T00:01:27.110Z,1.85
2022-11-19T00:02:02.410Z,1.82
2022-11-19T00:02:37.543Z,1.85
2022-11-19T00:03:12.962Z,1.85
2022-11-19T00:03:52.371Z,1.82
2022-11-19T00:04:23.285Z,1.89
2022-11-19T00:04:58.462Z,1.89
2022-11-19T00:05:33.675Z,1.83
2022-11-19T00:06:09.185Z,1.82
2022-11-19T00:06:44.420Z,1.91
2022-11-19T00:07:19.630Z,1.87
2022-11-19T00:07:54.824Z,1.90
2022-11-19T00:08:30.116Z,1.76
2022-11-19T00:09:05.464Z,1.80
2022-11-19T00:09:40.664Z,1.91
2022-11-19T00:10:16.178Z,1.90
2022-11-19T00:10:51.270Z,1.94
2022-11-19T00:11:26.692Z,1.83
2022-11-19T00:12:01.695Z,1.83
2022-11-19T00:12:36.719Z,1.83
2022-11-19T00:13:12.002Z,1.85
2022-11-19T00:13:47.308Z,1.85
2022-11-19T00:14:22.828Z,1.87
2022-11-19T00:14:58.057Z,1.94
2022-11-19T00:15:33.341Z,1.80
2022-11-19T00:16:08.744Z,1.85
2022-11-19T00:16:44.139Z,1.85
2022-11-19T00:17:19.367Z,1.89
2022-11-19T00:17:54.445Z,1.85
2022-11-19T00:18:29.557Z,1.82
2022-11-19T00:19:04.864Z,1.85
2022-11-19T00:19:40.384Z,1.87
2022-11-19T00:20:15.498Z,1.89
2022-11-19T00:20:50.992Z,1.80
2022-11-19T00:21:26.391Z,1.90
2022-11-19T00:22:01.801Z,1.85
2022-11-19T00:22:37.409Z,1.78
2022-11-19T00:23:12.418Z,1.80
2022-11-19T00:23:47.818Z,1.82
2022-11-19T00:24:22.773Z,1.76
2022-11-19T00:24:58.176Z,1.83
2022-11-19T00:25:33.192Z,1.76
2022-11-19T00:26:08.474Z,1.83
2022-11-19T00:26:43.869Z,1.85
2022-11-19T00:27:19.092Z,1.76
2022-11-19T00:27:54.334Z,1.80
2022-11-19T00:28:29.639Z,1.79
2022-11-19T00:29:04.839Z,1.80
2022-11-19T00:29:39.723Z,1.78
2022-11-19T00:30:40.825Z,1.82
2022-11-19T00:30:50.249Z,1.73
2022-11-19T00:31:25.668Z,1.71
2022-11-19T00:32:00.981Z,1.79
2022-11-19T00:32:36.412Z,1.79
2022-11-19T00:33:11.640Z,1.69
2022-11-19T00:33:47.086Z,1.71
2022-11-19T00:34:22.374Z,1.69
2022-11-19T00:34:57.592Z,1.76
2022-11-19T00:35:32.886Z,1.78
2022-11-19T00:36:08.209Z,1.62
2022-11-19T00:36:43.718Z,1.62
2022-11-19T00:37:18.918Z,1.71
2022-11-19T00:37:54.114Z,1.79
2022-11-19T00:38:29.330Z,1.64
2022-11-19T00:39:04.929Z,1.71
2022-11-19T00:39:39.947Z,1.69
2022-11-19T00:40:15.134Z,1.75
2022-11-19T00:40:50.852Z,1.64
2022-11-19T00:41:25.971Z,1.73
2022-11-19T00:42:01.837Z,1.79
2022-11-19T00:42:36.936Z,1.69
2022-11-19T00:43:12.160Z,1.69
2022-11-19T00:43:47.734Z,1.72
2022-11-19T00:44:22.572Z,1.75
2022-11-19T00:44:57.979Z,1.78
2022-11-19T00:45:33.306Z,1.68
2022-11-19T00:46:08.499Z,1.76
2022-11-19T00:46:43.813Z,1.73
2022-11-19T00:47:19.119Z,1.76
2022-11-19T00:47:54.143Z,1.76
2022-11-19T00:48:29.434Z,1.72
2022-11-19T00:49:04.682Z,1.72
2022-11-19T00:49:39.872Z,1.75
2022-11-19T00:50:15.387Z,1.78
2022-11-19T00:50:50.681Z,1.61
2022-11-19T00:51:26.212Z,1.64
2022-11-19T00:52:01.307Z,1.69
2022-11-19T00:52:36.442Z,1.69
2022-11-19T00:53:11.538Z,1.71
2022-11-19T00:53:47.056Z,1.78
2022-11-19T00:54:22.457Z,1.73
2022-11-19T00:54:57.779Z,1.78
2022-11-19T00:55:32.856Z,1.69
2022-11-19T00:56:08.003Z,1.73
2022-11-19T00:56:42.993Z,1.71
2022-11-19T00:57:18.307Z,1.71
2022-11-19T00:57:53.401Z,1.61
2022-11-19T00:58:29.412Z,1.61
2022-11-19T00:59:04.392Z,1.57
2022-11-19T00:59:39.950Z,1.57
2022-11-19T01:00:15.498Z,1.47
2022-11-19T01:00:50.534Z,1.44
2022-11-19T01:01:25.765Z,1.58
2022-11-19T01:02:00.811Z,1.42
2022-11-19T01:02:35.997Z,1.43
2022-11-19T01:03:11.776Z,1.44
2022-11-19T01:03:47.075Z,1.50
2022-11-19T01:04:22.274Z,1.44
2022-11-19T01:04:57.397Z,1.50
2022-11-19T01:05:32.835Z,1.44
2022-11-19T01:06:08.041Z,1.43
2022-11-19T01:06:43.252Z,1.40
2022-11-19T01:07:18.572Z,1.43
2022-11-19T01:07:53.877Z,1.37
2022-11-19T01:08:29.279Z,1.39
2022-11-19T01:09:04.300Z,1.33
2022-11-19T01:09:39.628Z,1.42
2022-11-19T01:10:15.160Z,1.26
2022-11-19T01:10:50.198Z,1.33
2022-11-19T01:11:25.519Z,1.42
2022-11-19T01:12:00.939Z,1.37
2022-11-19T01:12:36.047Z,1.44
2022-11-19T01:13:11.057Z,1.50
2022-11-19T01:13:46.161Z,1.46
2022-11-19T01:14:21.177Z,1.50
2022-11-19T01:14:56.293Z,1.43
2022-11-19T01:15:31.497Z,1.50
2022-11-19T01:16:07.014Z,1.50
2022-11-19T01:16:42.118Z,1.44
2022-11-19T01:17:17.429Z,1.40
2022-11-19T01:17:52.512Z,1.43
2022-11-19T01:18:27.704Z,1.44
2022-11-19T01:19:02.906Z,1.40
2022-11-19T01:19:38.009Z,1.50
2022-11-19T01:20:13.266Z,1.44
2022-11-19T01:20:48.851Z,1.50
2022-11-19T01:21:24.287Z,1.50
2022-11-19T01:21:59.483Z,1.50
2022-11-19T01:22:34.493Z,1.47
2022-11-19T01:23:09.789Z,1.47
2022-11-19T01:23:45.183Z,1.50
2022-11-19T01:24:20.406Z,1.44
2022-11-19T01:24:55.500Z,1.52
2022-11-19T01:25:30.909Z,1.40
2022-11-19T01:26:06.226Z,1.47
2022-11-19T01:26:45.461Z,1.50
2022-11-19T01:27:16.808Z,1.43
2022-11-19T01:27:51.928Z,1.46
2022-11-19T01:28:27.132Z,1.50
2022-11-19T01:29:02.565Z,1.44
2022-11-19T01:29:37.912Z,1.47
2022-11-19T01:30:13.423Z,1.55
2022-11-19T01:30:49.019Z,1.50
2022-11-19T01:31:24.508Z,1.47
2022-11-19T01:31:59.606Z,1.43
2022-11-19T01:32:34.732Z,1.47
2022-11-19T01:33:10.214Z,1.51
2022-11-19T01:33:45.150Z,1.47
2022-11-19T01:34:20.561Z,1.44
2022-11-19T01:34:55.892Z,1.50
2022-11-19T01:35:31.188Z,1.46
2022-11-19T01:36:06.608Z,1.50
2022-11-19T01:36:42.015Z,1.47
2022-11-19T01:37:17.304Z,1.54
2022-11-19T01:37:52.695Z,1.44
2022-11-19T01:38:28.114Z,1.52
2022-11-19T01:39:03.505Z,1.44
2022-11-19T01:39:39.020Z,1.51
2022-11-19T01:40:14.215Z,1.47
2022-11-19T01:40:49.623Z,1.50
2022-11-19T01:41:24.730Z,1.47
2022-11-19T01:41:59.971Z,1.44
2022-11-19T01:42:35.156Z,1.44
2022-11-19T01:43:10.487Z,1.52
2022-11-19T01:43:45.954Z,1.44
2022-11-19T01:44:21.405Z,1.52
2022-11-19T01:44:56.593Z,1.51
2022-11-19T01:45:32.030Z,1.50
2022-11-19T01:46:07.235Z,1.44
2022-11-19T01:46:42.648Z,1.50
2022-11-19T01:47:17.678Z,1.50
2022-11-19T01:47:52.778Z,1.52
2022-11-19T01:48:27.971Z,1.46
2022-11-19T01:49:03.702Z,1.44
2022-11-19T01:49:38.827Z,1.43
2022-11-19T01:50:14.258Z,1.46
2022-11-19T01:50:49.461Z,1.46
2022-11-19T01:51:24.698Z,1.43
2022-11-19T01:51:59.893Z,1.50
2022-11-19T01:52:35.338Z,1.43
2022-11-19T01:53:10.432Z,1.42
2022-11-19T01:53:46.062Z,1.40
2022-11-19T01:54:21.373Z,1.46
2022-11-19T01:54:56.982Z,1.44
2022-11-19T01:55:32.272Z,1.44
2022-11-19T01:56:07.597Z,1.58
2022-11-19T01:56:42.685Z,1.50
2022-11-19T01:57:17.863Z,1.55
2022-11-19T01:57:53.079Z,1.57
2022-11-19T01:58:28.303Z,1.58
2022-11-19T01:59:03.408Z,1.55
2022-11-19T01:59:38.743Z,1.52
2022-11-19T02:00:14.048Z,1.44
2022-11-19T02:00:49.177Z,1.47
2022-11-19T02:01:24.430Z,1.43
2022-11-19T02:01:59.606Z,1.43
2022-11-19T02:02:34.820Z,1.44
2022-11-19T02:03:09.980Z,1.51
2022-11-19T02:03:45.275Z,1.47
2022-11-19T02:04:20.382Z,1.44
2022-11-19T02:04:55.603Z,1.52
2022-11-19T02:05:30.819Z,1.40
2022-11-19T02:06:06.148Z,1.51
2022-11-19T02:06:41.679Z,1.43
2022-11-19T02:07:17.304Z,1.46
2022-11-19T02:07:52.592Z,1.46
2022-11-19T02:08:27.707Z,1.52
2022-11-19T02:09:02.739Z,1.44
2022-11-19T02:09:38.072Z,1.47
2022-11-19T02:10:13.194Z,1.47
2022-11-19T02:10:48.594Z,1.46
2022-11-19T02:11:23.826Z,1.50
2022-11-19T02:11:58.937Z,1.50
2022-11-19T02:12:34.154Z,1.44
2022-11-19T02:13:09.353Z,1.50
2022-11-19T02:13:44.594Z,1.42
2022-11-19T02:14:19.704Z,1.47
2022-11-19T02:14:55.156Z,1.40
2022-11-19T02:15:30.120Z,1.50
2022-11-19T02:16:05.280Z,1.44
2022-11-19T02:16:40.164Z,1.42
2022-11-19T02:17:15.200Z,1.46
2022-11-19T02:17:50.836Z,1.42
2022-11-19T02:18:26.070Z,1.52
2022-11-19T02:19:01.392Z,1.43
2022-11-19T02:19:36.718Z,1.43
2022-11-19T02:20:11.912Z,1.46
2022-11-19T02:20:47.236Z,1.50
2022-11-19T02:21:22.432Z,1.46
2022-11-19T02:21:57.651Z,1.47
2022-11-19T02:22:33.037Z,1.42
2022-11-19T02:23:08.202Z,1.42
2022-11-19T02:23:46.212Z,1.39
2022-11-19T02:24:18.844Z,1.44
2022-11-19T02:24:54.154Z,1.37
2022-11-19T02:25:29.688Z,1.25
2022-11-19T02:26:04.896Z,1.36
2022-11-19T02:26:40.224Z,1.34
2022-11-19T02:27:15.744Z,1.39
2022-11-19T02:27:51.260Z,1.40
2022-11-19T02:28:26.180Z,1.46
2022-11-19T02:29:02.000Z,1.28
2022-11-19T02:29:37.104Z,1.29
2022-11-19T02:30:12.669Z,1.32
2022-11-19T02:30:48.390Z,1.37
2022-11-19T02:31:23.737Z,1.39
2022-11-19T02:31:58.969Z,1.34
2022-11-19T02:32:34.405Z,1.37
2022-11-19T02:33:09.514Z,1.34
2022-11-19T02:33:44.956Z,1.40
2022-11-19T02:34:20.776Z,1.37
2022-11-19T02:34:56.206Z,1.40
2022-11-19T02:35:31.442Z,1.36
2022-11-19T02:36:06.988Z,1.40
2022-11-19T02:36:42.194Z,1.36
2022-11-19T02:37:17.406Z,1.26
2022-11-19T02:37:52.714Z,1.33
2022-11-19T02:38:27.847Z,1.37
2022-11-19T02:39:03.246Z,1.32
2022-11-19T02:39:39.022Z,1.28
2022-11-19T02:40:14.547Z,1.32
2022-11-19T02:40:49.614Z,1.36
2022-11-19T02:41:24.662Z,1.36
2022-11-19T02:41:59.994Z,1.36
2022-11-19T02:42:35.018Z,1.40
2022-11-19T02:43:10.046Z,1.36
2022-11-19T02:43:45.411Z,1.32
2022-11-19T02:44:20.656Z,1.37
2022-11-19T02:44:55.909Z,1.39
2022-11-19T02:45:30.945Z,1.37
2022-11-19T02:46:06.257Z,1.32
2022-11-19T02:46:41.481Z,1.34
2022-11-19T02:47:16.701Z,1.40
2022-11-19T02:47:52.037Z,1.36
2022-11-19T02:48:27.615Z,1.37
2022-11-19T02:49:02.742Z,1.37
2022-11-19T02:49:38.074Z,1.29
2022-11-19T02:50:13.303Z,1.36
2022-11-19T02:50:48.680Z,1.36
2022-11-19T02:51:24.013Z,1.26
2022-11-19T02:51:59.523Z,1.33
2022-11-19T02:52:34.885Z,1.29
2022-11-19T02:53:10.190Z,1.29
2022-11-19T02:53:45.322Z,1.36
2022-11-19T02:54:20.644Z,1.28
2022-11-19T02:54:56.111Z,1.26
2022-11-19T02:55:31.527Z,1.37
2022-11-19T02:56:06.560Z,1.37
2022-11-19T02:56:41.884Z,1.32
2022-11-19T02:57:17.512Z,1.26
2022-11-19T02:57:52.721Z,1.29
2022-11-19T02:58:28.064Z,1.29
2022-11-19T02:59:03.560Z,1.26
2022-11-19T02:59:38.865Z,1.37
2022-11-19T03:00:14.068Z,1.34
2022-11-19T03:00:49.519Z,1.29
2022-11-19T03:01:24.672Z,1.25
2022-11-19T03:01:59.869Z,1.24
2022-11-19T03:02:35.095Z,1.34
2022-11-19T03:03:10.418Z,1.29
2022-11-19T03:03:45.620Z,1.34
2022-11-19T03:04:20.756Z,1.29
2022-11-19T03:04:56.150Z,1.26
2022-11-19T03:05:31.199Z,1.28
2022-11-19T03:06:06.526Z,1.34
2022-11-19T03:06:41.948Z,1.29
2022-11-19T03:07:17.719Z,1.25
2022-11-19T03:07:52.802Z,1.33
2022-11-19T03:08:27.894Z,1.28
2022-11-19T03:09:03.488Z,1.26
2022-11-19T03:09:38.710Z,1.28
2022-11-19T03:10:14.037Z,1.25
2022-11-19T03:10:49.132Z,1.33
2022-11-19T03:11:24.797Z,1.32
2022-11-19T03:12:00.138Z,1.29
2022-11-19T03:12:35.559Z,1.29
2022-11-19T03:13:10.723Z,1.25
2022-11-19T03:13:45.957Z,1.29
2022-11-19T03:14:21.471Z,1.26
2022-11-19T03:14:56.688Z,1.26
2022-11-19T03:15:31.691Z,1.34
2022-11-19T03:16:06.505Z,1.26
2022-11-19T03:16:41.944Z,1.22
2022-11-19T03:17:17.276Z,1.28
2022-11-19T03:17:52.306Z,1.28
2022-11-19T03:18:27.454Z,1.24
2022-11-19T03:19:02.716Z,1.29
2022-11-19T03:19:38.053Z,1.24
2022-11-19T03:20:13.056Z,1.28
2022-11-19T03:20:48.186Z,1.32
2022-11-19T03:21:23.303Z,1.25
2022-11-19T03:21:58.959Z,1.21
2022-11-19T03:22:34.172Z,1.28
2022-11-19T03:23:09.599Z,1.25
2022-11-19T03:23:44.711Z,1.32
2022-11-19T03:24:19.850Z,1.29
2022-11-19T03:24:55.195Z,1.29
2022-11-19T03:25:30.452Z,1.26
2022-11-19T03:26:05.565Z,1.19
2022-11-19T03:26:41.007Z,1.25
2022-11-19T03:27:16.208Z,1.28
2022-11-19T03:27:51.328Z,1.26
2022-11-19T03:28:26.550Z,1.22
2022-11-19T03:29:01.577Z,1.21
2022-11-19T03:29:36.888Z,1.25
2022-11-19T03:30:12.031Z,1.25
2022-11-19T03:30:47.324Z,1.26
2022-11-19T03:31:22.556Z,1.25
2022-11-19T03:31:57.593Z,1.26
2022-11-19T03:32:32.806Z,1.24
2022-11-19T03:33:08.318Z,1.33
2022-11-19T03:33:43.559Z,1.24
2022-11-19T03:34:18.785Z,1.16
2022-11-19T03:34:54.201Z,1.32
2022-11-19T03:35:29.397Z,1.16
2022-11-19T03:36:04.726Z,1.18
2022-11-19T03:36:39.730Z,1.21
2022-11-19T03:37:15.281Z,1.14
2022-11-19T03:37:50.376Z,1.19
2022-11-19T03:38:25.621Z,1.24
2022-11-19T03:39:00.929Z,1.18
2022-11-19T03:39:36.041Z,1.19
2022-11-19T03:40:11.557Z,1.22
2022-11-19T03:40:46.679Z,1.18
2022-11-19T03:41:22.072Z,1.25
2022-11-19T03:41:57.176Z,1.19
2022-11-19T03:42:32.281Z,1.18
2022-11-19T03:43:07.527Z,1.18
2022-11-19T03:43:42.654Z,1.14
2022-11-19T03:44:17.976Z,1.14
2022-11-19T03:44:52.986Z,1.21
2022-11-19T03:45:28.304Z,1.16
2022-11-19T03:46:03.558Z,1.14
2022-11-19T03:46:38.772Z,1.15
2022-11-19T03:47:13.868Z,1.15
2022-11-19T03:47:49.111Z,1.18
2022-11-19T03:48:24.414Z,1.16
2022-11-19T03:48:59.762Z,1.15
2022-11-19T03:49:35.482Z,1.19
2022-11-19T03:50:10.810Z,1.32
2022-11-19T03:50:46.314Z,1.12
2022-11-19T03:51:21.933Z,1.16
2022-11-19T03:51:57.031Z,1.16
2022-11-19T03:52:32.478Z,1.19
2022-11-19T03:53:07.680Z,1.12
2022-11-19T03:53:43.100Z,1.16
2022-11-19T03:54:18.302Z,1.24
2022-11-19T03:54:53.938Z,1.19
2022-11-19T03:55:29.168Z,1.14
2022-11-19T03:56:04.584Z,1.14
2022-11-19T03:56:39.926Z,1.18
2022-11-19T03:57:15.132Z,1.08
2022-11-19T03:57:50.246Z,1.25
2022-11-19T03:58:25.580Z,1.16
2022-11-19T03:59:00.931Z,1.19
2022-11-19T03:59:36.166Z,1.18
2022-11-19T04:00:11.172Z,1.19
2022-11-19T04:00:46.517Z,1.12
2022-11-19T04:01:21.994Z,1.19
2022-11-19T04:01:57.293Z,1.15
2022-11-19T04:02:32.579Z,1.21
2022-11-19T04:03:07.687Z,1.21
2022-11-19T04:03:42.690Z,1.16
2022-11-19T04:04:18.019Z,1.15
2022-11-19T04:04:53.117Z,1.14
2022-11-19T04:05:28.236Z,1.15
2022-11-19T04:06:03.348Z,1.19
2022-11-19T04:06:38.774Z,1.14
2022-11-19T04:07:14.100Z,1.12
2022-11-19T04:07:49.222Z,1.07
2022-11-19T04:08:24.719Z,1.12
2022-11-19T04:09:00.068Z,1.14
2022-11-19T04:09:35.172Z,1.15
2022-11-19T04:10:10.697Z,1.14
2022-11-19T04:10:45.995Z,1.12
2022-11-19T04:11:42.315Z,1.06
2022-11-19T04:12:17.523Z,1.06
2022-11-19T04:12:52.875Z,1.06
2022-11-19T04:13:28.288Z,1.07
2022-11-19T04:14:03.317Z,1.03
2022-11-19T04:14:38.452Z,1.08
2022-11-19T04:15:13.775Z,1.03
2022-11-19T04:15:49.019Z,1.04
2022-11-19T04:16:24.039Z,1.07
2022-11-19T04:16:59.462Z,1.04
2022-11-19T04:17:34.623Z,1.08
2022-11-19T04:18:09.534Z,1.04
2022-11-19T04:18:44.860Z,0.98
2022-11-19T04:19:20.010Z,1.03
2022-11-19T04:19:54.781Z,1.06
2022-11-19T04:20:30.181Z,1.07
2022-11-19T04:21:05.432Z,1.06
2022-11-19T04:21:40.917Z,0.96
2022-11-19T04:22:16.080Z,1.07
2022-11-19T04:22:51.210Z,1.10
2022-11-19T04:23:26.335Z,1.06
2022-11-19T04:24:01.539Z,1.01
2022-11-19T04:24:36.770Z,1.00
2022-11-19T04:25:11.980Z,1.07
2022-11-19T04:25:47.015Z,1.03
2022-11-19T04:26:22.035Z,1.00
2022-11-19T04:26:57.264Z,0.98
2022-11-19T04:27:32.571Z,0.90
2022-11-19T04:28:08.217Z,1.00
2022-11-19T04:28:43.615Z,0.90
2022-11-19T04:29:19.198Z,0.98
2022-11-19T04:29:53.785Z,0.92
2022-11-19T04:30:29.026Z,0.97
2022-11-19T04:31:04.036Z,1.00
2022-11-19T04:31:39.554Z,1.00
2022-11-19T04:32:14.546Z,0.94
2022-11-19T04:32:49.875Z,1.03
2022-11-19T04:33:25.196Z,0.94
2022-11-19T04:34:00.139Z,1.01
2022-11-19T04:34:35.460Z,1.03
2022-11-19T04:35:10.907Z,0.92
2022-11-19T04:35:46.123Z,0.88
2022-11-19T04:36:21.465Z,0.92
2022-11-19T04:36:56.701Z,1.00
2022-11-19T04:37:32.044Z,0.92
2022-11-19T04:38:07.263Z,0.98
2022-11-19T04:38:42.890Z,0.92
2022-11-19T04:39:18.474Z,0.94
2022-11-19T04:39:53.140Z,0.98
2022-11-19T04:40:28.857Z,0.92
2022-11-19T04:41:03.954Z,0.85
2022-11-19T04:41:39.352Z,0.94
2022-11-19T04:42:14.600Z,0.96
2022-11-19T04:42:49.813Z,0.86
2022-11-19T04:43:25.051Z,0.88
2022-11-19T04:44:00.269Z,0.82
2022-11-19T04:44:35.632Z,0.88
2022-11-19T04:45:11.033Z,0.90
2022-11-19T04:45:46.141Z,0.89
2022-11-19T04:46:21.224Z,0.88
2022-11-19T04:46:56.754Z,0.85
2022-11-19T04:47:31.855Z,0.83
2022-11-19T04:48:07.101Z,0.79
2022-11-19T04:48:42.056Z,0.75
2022-11-19T04:49:17.400Z,0.80
2022-11-19T04:49:52.863Z,0.72
2022-11-19T04:50:27.980Z,0.83
2022-11-19T04:51:03.191Z,0.80
2022-11-19T04:51:38.538Z,0.75
2022-11-19T04:52:13.647Z,0.75
2022-11-19T04:52:49.186Z,0.78
2022-11-19T04:53:24.513Z,0.75
2022-11-19T04:53:59.663Z,0.76
2022-11-19T04:54:34.872Z,0.72
2022-11-19T04:55:10.093Z,0.72
2022-11-19T04:55:45.503Z,0.71
2022-11-19T04:56:21.054Z,0.67
2022-11-19T04:56:56.178Z,0.72
2022-11-19T04:57:31.334Z,0.68
2022-11-19T04:58:06.674Z,0.64
2022-11-19T04:58:41.803Z,0.62
2022-11-19T04:59:17.274Z,0.62
2022-11-19T04:59:52.344Z,0.64
2022-11-19T05:00:27.568Z,0.68
2022-11-19T05:01:02.795Z,0.68
2022-11-19T05:01:38.117Z,0.53
2022-11-19T05:02:13.183Z,0.51
2022-11-19T05:02:48.229Z,0.61
2022-11-19T05:03:23.501Z,0.58
2022-11-19T05:03:58.729Z,0.51
2022-11-19T05:04:34.035Z,0.58
2022-11-19T05:05:09.432Z,0.43
2022-11-19T05:05:44.661Z,0.64
2022-11-19T05:06:19.779Z,0.48
2022-11-19T05:06:55.159Z,0.46
2022-11-19T05:07:30.333Z,0.39
2022-11-19T05:08:05.396Z,0.51
2022-11-19T05:08:40.789Z,0.58
2022-11-19T05:09:16.068Z,0.51
2022-11-19T05:09:51.441Z,0.45
2022-11-19T05:10:26.561Z,0.51
2022-11-19T05:11:01.676Z,0.53
2022-11-19T05:11:37.492Z,0.48
2022-11-19T05:12:12.702Z,0.48
2022-11-19T05:12:47.856Z,0.46
2022-11-19T05:13:22.988Z,0.45
2022-11-19T05:13:58.513Z,0.42
2022-11-19T05:14:33.525Z,0.42
2022-11-19T05:15:16.371Z,0.48
2022-11-19T05:15:51.374Z,0.38
2022-11-19T05:16:26.761Z,0.43
2022-11-19T05:17:01.831Z,0.31
2022-11-19T05:17:37.263Z,0.36
2022-11-19T05:18:12.486Z,0.42
2022-11-19T05:18:47.549Z,0.27
2022-11-19T05:19:23.192Z,0.41
2022-11-19T05:19:58.512Z,0.23
2022-11-19T05:20:33.799Z,0.27
2022-11-19T05:21:09.120Z,0.23
2022-11-19T05:21:44.219Z,0.27
2022-11-19T05:22:19.355Z,0.18
2022-11-19T05:22:54.626Z,0.25
2022-11-19T05:23:29.938Z,0.13
2022-11-19T05:24:05.344Z,0.23
2022-11-19T05:24:40.575Z,0.16
2022-11-19T05:25:15.696Z,0.12
2022-11-19T05:25:50.918Z,0.15
2022-11-19T05:26:26.138Z,0.12
2022-11-19T05:27:01.278Z,0.15
2022-11-19T05:27:36.302Z,0.10
2022-11-19T05:28:11.466Z,0.15
2022-11-19T05:28:47.015Z,0.09
2022-11-19T05:29:22.314Z,0.09
2022-11-19T05:29:57.362Z,0.05
2022-11-19T05:30:32.966Z,0.02
2022-11-19T05:31:08.197Z,-0.04
2022-11-19T05:31:43.242Z,0.02
2022-11-19T05:32:18.580Z,0.10
2022-11-19T05:32:53.768Z,0.00
2022-11-19T05:33:33.770Z,0.00
2022-11-19T05:34:04.603Z,0.03
2022-11-19T05:34:39.932Z,-0.06
2022-11-19T05:35:15.269Z,0.02
2022-11-19T05:35:50.305Z,0.05
2022-11-19T05:36:25.959Z,-0.01
2022-11-19T05:37:01.398Z,0.10
2022-11-19T05:37:36.843Z,-0.01
2022-11-19T05:38:12.292Z,-0.11
2022-11-19T05:38:47.522Z,-0.18
2022-11-19T05:39:22.767Z,-0.01
2022-11-19T05:39:58.385Z,-0.06
2022-11-19T05:40:33.784Z,0.00
2022-11-19T05:41:08.936Z,0.02
2022-11-19T05:41:44.349Z,0.00
2022-11-19T05:42:19.616Z,-0.01
2022-11-19T05:42:54.821Z,0.00
2022-11-19T05:43:30.383Z,-0.04
2022-11-19T05:44:05.888Z,0.00
2022-11-19T05:44:41.342Z,-0.06
2022-11-19T05:45:16.546Z,-0.06
2022-11-19T05:45:51.986Z,-0.09
2022-11-19T05:46:27.209Z,-0.11
2022-11-19T05:47:02.404Z,-0.19
2022-11-19T05:47:37.638Z,-0.22
2022-11-19T05:48:12.890Z,-0.18
2022-11-19T05:48:48.120Z,-0.16
2022-11-19T05:49:23.266Z,-0.22
2022-11-19T05:49:58.773Z,-0.19
2022-11-19T05:50:33.906Z,-0.16
2022-11-19T05:51:09.040Z,-0.19
2022-11-19T05:51:44.281Z,-0.16
2022-11-19T05:52:19.712Z,-0.18
2022-11-19T05:52:55.220Z,-0.22
2022-11-19T05:53:30.204Z,-0.31
2022-11-19T05:54:05.327Z,-0.27
2022-11-19T05:54:40.770Z,-0.29
2022-11-19T05:55:16.012Z,-0.19
2022-11-19T05:55:51.522Z,-0.26
2022-11-19T05:56:26.773Z,-0.26
2022-11-19T05:57:02.206Z,-0.34
2022-11-19T05:57:37.460Z,-0.26
2022-11-19T05:58:12.831Z,-0.24
2022-11-19T05:58:48.184Z,-0.27
2022-11-19T05:59:23.605Z,-0.30
2022-11-19T05:59:58.962Z,-0.19
2022-11-19T06:00:34.160Z,-0.29
2022-11-19T06:01:09.688Z,-0.24
2022-11-19T06:01:45.044Z,-0.33
2022-11-19T06:02:20.361Z,-0.31
2022-11-19T06:02:55.726Z,-0.33
2022-11-19T06:03:30.923Z,-0.31
2022-11-19T06:04:06.475Z,-0.37
2022-11-19T06:04:42.202Z,-0.34
2022-11-19T06:05:17.419Z,-0.27
2022-11-19T06:05:53.340Z,-0.31
2022-11-19T06:06:28.466Z,-0.33
2022-11-19T06:07:03.761Z,-0.30
2022-11-19T06:07:38.835Z,-0.36
2022-11-19T06:08:14.267Z,-0.36
2022-11-19T06:08:49.594Z,-0.30
2022-11-19T06:09:25.127Z,-0.48
2022-11-19T06:10:00.378Z,-0.45
2022-11-19T06:10:35.624Z,-0.44
2022-11-19T06:11:11.318Z,-0.48
2022-11-19T06:11:46.729Z,-0.47
2022-11-19T06:12:22.153Z,-0.45
2022-11-19T06:12:57.391Z,-0.34
2022-11-19T06:13:32.939Z,-0.37
2022-11-19T06:14:08.261Z,-0.47
2022-11-19T06:14:43.370Z,-0.30
2022-11-19T06:15:18.700Z,-0.45
2022-11-19T06:15:54.127Z,-0.39
2022-11-19T06:16:29.487Z,-0.41
2022-11-19T06:17:04.605Z,-0.41
2022-11-19T06:17:39.916Z,-0.45
2022-11-19T06:18:15.196Z,-0.39
2022-11-19T06:18:50.754Z,-0.44
2022-11-19T06:19:25.973Z,-0.36
2022-11-19T06:20:01.306Z,-0.42
2022-11-19T06:20:36.743Z,-0.42
2022-11-19T06:21:12.395Z,-0.44
2022-11-19T06:21:47.192Z,-0.42
2022-11-19T06:22:22.808Z,-0.45
2022-11-19T06:22:58.520Z,-0.42
2022-11-19T06:23:33.756Z,-0.45
2022-11-19T06:24:08.976Z,-0.41
2022-11-19T06:24:44.213Z,-0.41
2022-11-19T06:25:19.958Z,-0.41
2022-11-19T06:25:54.996Z,-0.42
2022-11-19T06:26:30.556Z,-0.42
2022-11-19T06:27:05.805Z,-0.45
2022-11-19T06:27:40.942Z,-0.48
2022-11-19T06:28:16.545Z,-0.41
2022-11-19T06:28:52.015Z,-0.44
2022-11-19T06:29:27.344Z,-0.42
2022-11-19T06:30:02.754Z,-0.47
2022-11-19T06:30:38.175Z,-0.39
2022-11-19T06:31:13.447Z,-0.42
2022-11-19T06:31:48.804Z,-0.41
2022-11-19T06:32:24.047Z,-0.39
2022-11-19T06:32:59.202Z,-0.36
2022-11-19T06:33:34.229Z,-0.36
2022-11-19T06:34:09.350Z,-0.42
2022-11-19T06:34:44.600Z,-0.45
2022-11-19T06:35:19.857Z,-0.52
2022-11-19T06:35:55.148Z,-0.45
2022-11-19T06:36:35.955Z,-0.52
2022-11-19T06:37:05.293Z,-0.55
2022-11-19T06:37:40.850Z,-0.45
2022-11-19T06:38:16.165Z,-0.50
2022-11-19T06:38:51.497Z,-0.50
2022-11-19T06:39:26.787Z,-0.50
2022-11-19T06:40:02.020Z,-0.44
2022-11-19T06:40:37.139Z,-0.54
2022-11-19T06:41:12.372Z,-0.55
2022-11-19T06:41:47.606Z,-0.57
2022-11-19T06:42:22.673Z,-0.52
2022-11-19T06:42:58.304Z,-0.54
2022-11-19T06:43:33.677Z,-0.57
2022-11-19T06:44:09.139Z,-0.50
2022-11-19T06:44:44.490Z,-0.50
2022-11-19T06:45:19.922Z,-0.57
2022-11-19T06:45:55.038Z,-0.55
2022-11-19T06:46:30.194Z,-0.55
2022-11-19T06:47:05.678Z,-0.44
2022-11-19T06:47:41.201Z,-0.65
2022-11-19T06:48:16.586Z,-0.60
2022-11-19T06:48:51.875Z,-0.54
2022-11-19T06:49:27.304Z,-0.63
2022-11-19T06:50:02.446Z,-0.66
2022-11-19T06:50:37.894Z,-0.62
2022-11-19T06:51:13.700Z,-0.60
2022-11-19T06:51:48.826Z,-0.60
2022-11-19T06:52:24.114Z,-0.65
2022-11-19T06:52:59.641Z,-0.60
2022-11-19T06:53:35.261Z,-0.60
2022-11-19T06:54:10.695Z,-0.66
2022-11-19T06:54:45.898Z,-0.68
2022-11-19T06:55:20.924Z,-0.62
2022-11-19T06:55:56.230Z,-0.62
2022-11-19T06:56:31.584Z,-0.65
2022-11-19T06:57:07.072Z,-0.72
2022-11-19T06:57:42.212Z,-0.65
2022-11-19T06:58:17.339Z,-0.65
2022-11-19T06:58:52.671Z,-0.66
2022-11-19T06:59:27.971Z,-0.59
2022-11-19T07:00:03.274Z,-0.66
2022-11-19T07:00:38.686Z,-0.69
2022-11-19T07:01:14.933Z,-0.66
2022-11-19T07:01:50.360Z,-0.80
2022-11-19T07:02:25.800Z,-0.78
2022-11-19T07:03:01.009Z,-0.62
2022-11-19T07:03:36.359Z,-0.70
2022-11-19T07:04:11.472Z,-0.69
2022-11-19T07:04:46.719Z,-0.70
2022-11-19T07:05:21.962Z,-0.70
2022-11-19T07:05:57.277Z,-0.65
2022-11-19T07:06:32.773Z,-0.70
2022-11-19T07:07:07.899Z,-0.70
2022-11-19T07:07:43.175Z,-0.75
2022-11-19T07:08:19.277Z,-0.72
2022-11-19T07:08:54.316Z,-0.70
2022-11-19T07:09:29.687Z,-0.73
2022-11-19T07:10:04.999Z,-0.60
2022-11-19T07:10:40.470Z,-0.78
2022-11-19T07:11:15.852Z,-0.70
2022-11-19T07:11:51.462Z,-0.75
2022-11-19T07:12:26.719Z,-0.70
2022-11-19T07:13:02.089Z,-0.77
2022-11-19T07:13:37.332Z,-0.75
2022-11-19T07:14:12.888Z,-0.78
2022-11-19T07:14:48.101Z,-0.68
2022-11-19T07:15:23.359Z,-0.68
2022-11-19T07:15:58.592Z,-0.86
2022-11-19T07:16:34.209Z,-0.70
2022-11-19T07:17:09.306Z,-0.77
2022-11-19T07:17:44.639Z,-0.66
2022-11-19T07:18:20.474Z,-0.81
2022-11-19T07:18:55.821Z,-0.80
2022-11-19T07:19:31.190Z,-0.81
2022-11-19T07:20:06.438Z,-0.73
2022-11-19T07:20:41.824Z,-0.69
2022-11-19T07:21:17.434Z,-0.70
2022-11-19T07:21:52.665Z,-0.80
2022-11-19T07:22:28.086Z,-0.69
2022-11-19T07:23:03.417Z,-0.73
2022-11-19T07:23:38.990Z,-0.77
2022-11-19T07:24:14.641Z,-0.70
2022-11-19T07:24:49.913Z,-0.81
2022-11-19T07:25:25.291Z,-0.72
2022-11-19T07:26:00.643Z,-0.69
2022-11-19T07:26:35.819Z,-0.75
2022-11-19T07:27:11.226Z,-0.77
2022-11-19T07:27:47.143Z,-0.70
2022-11-19T07:28:22.504Z,-0.70
2022-11-19T07:29:03.110Z,-0.81
2022-11-19T07:29:33.359Z,-0.77
2022-11-19T07:30:08.695Z,-0.68
2022-11-19T07:30:44.052Z,-0.75
2022-11-19T07:31:19.430Z,-0.77
2022-11-19T07:31:54.988Z,-0.84
2022-11-19T07:32:30.252Z,-0.77
2022-11-19T07:33:05.845Z,-0.84
2022-11-19T07:33:41.035Z,-0.72
2022-11-19T07:34:16.689Z,-0.73
2022-11-19T07:34:52.080Z,-0.69
2022-11-19T07:35:27.317Z,-0.75
2022-11-19T07:36:02.586Z,-0.69
2022-11-19T07:36:37.833Z,-0.80
2022-11-19T07:37:13.074Z,-0.77
2022-11-19T07:37:48.339Z,-0.73
2022-11-19T07:38:23.499Z,-0.78
2022-11-19T07:38:58.938Z,-0.70
2022-11-19T07:39:34.350Z,-0.72
2022-11-19T07:40:09.446Z,-0.73
2022-11-19T07:40:44.757Z,-0.73
2022-11-19T07:41:20.494Z,-0.73
2022-11-19T07:41:56.022Z,-0.75
2022-11-19T07:42:31.669Z,-0.75
2022-11-19T07:43:07.356Z,-0.73
2022-11-19T07:43:42.609Z,-0.70
2022-11-19T07:44:17.924Z,-0.77
2022-11-19T07:44:54.893Z,-0.66
2022-11-19T07:45:28.157Z,-0.80
2022-11-19T07:46:03.428Z,-0.66